KBKW/BKW METAR and TAF weather

Enter ICAO airport designator
Station Type Date Time Source
KBKW METAR 2019/12/07 09:51 UTC NOAA

KBKW 070951Z AUTO 01005KT M1/4SM FG VV001 02/01 A3023 RMK AO2 SLP256 T00220011 $


Station Type Date Time Source
KBKW Decoded METAR 2019/12/07 09:51 UTC NOAA

RALEIGH COUNTY MEM AIRPORT , WV, United States (KBKW) 37-48N 081-07W 764M
Dec 07, 2019 - 04:51 AM EST / 2019.12.07 0951 UTC
Wind: from the N (010 degrees) at 6 MPH (5 KT):0
Visibility: less than 1/4 mile(s):1
Sky conditions: obscured
Weather: fog
Temperature: 36.0 F (2.2 C)
Dew Point: 34.0 F (1.1 C)
Relative Humidity: 92%
Pressure (altimeter): 30.23 in. Hg (1023 hPa)
ob: KBKW 070951Z AUTO 01005KT M1/4SM FG VV001 02/01 A3023 RMK AO2 SLP256 T00220011
cycle: 10

Station Type Date Time Source
KBKW TAF 2019/12/07 09:06 UTC NOAA

TAF
AMD KBKW 070904Z 0709/0806 35005KT 1/4SM FG OVC002
FM071200 35004KT P6SM SCT200
FM080400 15009KT P6SM FEW200

Example: see airport list